Time;durP1;ratioP1;P1;durP2;ratioP2;P2;SDS_P1;SDS_P2;PMS_P1;PMS_P2;Temp;Humidity;BMP_temperature;BMP_pressure;BME280_temperature;BME280_humidity;BME280_pressure;Samples;Min_cycle;Max_cycle;Signal;HPM_P1;HPM_P2
2023/06/07 00:01:47;;;;;;;2.55;1.80;;;;;;;;;;5074580;28;20051;-81
2023/06/07 00:04:13;;;;;;;2.38;1.63;;;;;;;;;;5074763;28;20024;-81
2023/06/07 00:06:39;;;;;;;2.58;1.60;;;;;;;;;;5074598;28;20467;-82
2023/06/07 00:09:07;;;;;;;1.80;1.35;;;23.80;56.90;;;;;;5074213;28;20036;-81
2023/06/07 00:11:33;;;;;;;1.95;1.60;;;;;;;;;;5074252;28;20025;-81
2023/06/07 00:13:59;;;;;;;2.95;1.55;;;;;;;;;;5074050;28;20021;-82
2023/06/07 00:16:26;;;;;;;1.40;1.30;;;;;;;;;;5073673;28;20051;-82
2023/06/07 00:18:52;;;;;;;1.60;1.50;;;;;;;;;;5073959;28;20035;-81
2023/06/07 00:21:20;;;;;;;1.88;1.77;;;;;;;;;;5073939;28;20044;-81
2023/06/07 00:23:46;;;;;;;2.75;1.75;;;;;;;;;;5074252;28;20452;-81
2023/06/07 00:26:12;;;;;;;2.05;1.50;;;;;;;;;;5056027;28;20038;-81
2023/06/07 00:28:38;;;;;;;2.17;1.52;;;;;;;;;;5074460;28;20012;-81
2023/06/07 00:31:04;;;;;;;2.28;1.52;;;;;;;;;;5074068;28;20032;-81
2023/06/07 00:33:30;;;;;;;1.73;1.45;;;;;;;;;;5074197;28;20031;-82
2023/06/07 00:35:57;;;;;;;3.08;1.42;;;;;;;;;;5073798;28;20033;-82
2023/06/07 00:38:23;;;;;;;2.95;1.75;;;23.70;56.60;;;;;;5073872;28;20103;-82
2023/06/07 00:40:49;;;;;;;2.00;1.65;;;;;;;;;;5073827;28;20147;-82
2023/06/07 00:43:15;;;;;;;2.38;1.58;;;;;;;;;;5073853;28;20086;-82
2023/06/07 00:45:42;;;;;;;2.10;1.60;;;;;;;;;;5055895;28;20055;-82
2023/06/07 00:48:08;;;;;;;2.63;1.83;;;;;;;;;;5073818;28;20397;-82
2023/06/07 00:50:34;;;;;;;1.60;1.40;;;23.60;55.60;;;;;;5073630;28;20024;-82
2023/06/07 00:53:01;;;;;;;3.30;1.75;;;23.60;58.90;;;;;;5073502;28;20035;-81
2023/06/07 00:55:27;;;;;;;1.77;1.45;;;;;;;;;;5073197;28;20016;-81
2023/06/07 00:57:54;;;;;;;1.80;1.30;;;23.60;58.50;;;;;;5073199;28;20033;-82
2023/06/07 01:00:20;;;;;;;3.00;1.52;;;;;;;;;;5073261;28;20082;-82
2023/06/07 01:02:49;;;;;;;2.47;1.40;;;23.60;58.50;;;;;;5072954;28;20190;-81
2023/06/07 01:05:16;;;;;;;4.28;1.58;;;23.50;55.20;;;;;;5073034;28;20362;-82
2023/06/07 01:07:46;;;;;;;2.22;1.55;;;23.50;51.70;;;;;;5073195;28;20032;-81
2023/06/07 01:10:12;;;;;;;1.90;1.67;;;;;;;;;;5073086;28;20060;-82
2023/06/07 01:12:39;;;;;;;2.35;1.55;;;23.50;57.90;;;;;;5072897;28;20505;-82
2023/06/07 01:15:06;;;;;;;1.60;1.50;;;;;;;;;;5073054;28;20157;-82
2023/06/07 01:17:32;;;;;;;2.08;1.15;;;;;;;;;;5072961;28;20038;-82
2023/06/07 01:20:04;;;;;;;1.88;1.67;;;23.50;54.70;;;;;;5073051;28;20028;-82
2023/06/07 01:22:30;;;;;;;2.05;1.65;;;;;;;;;;5072893;28;20024;-82
2023/06/07 01:24:56;;;;;;;1.38;1.25;;;;;;;;;;5055045;28;20024;-82
2023/06/07 01:27:27;;;;;;;1.55;1.40;;;23.40;58.20;;;;;;5072510;28;20471;-82
2023/06/07 01:29:55;;;;;;;2.22;1.60;;;23.30;58.40;;;;;;5072146;28;20016;-82
2023/06/07 01:32:22;;;;;;;1.60;1.50;;;;;;;;;;5072516;28;20099;-82
2023/06/07 01:34:49;;;;;;;3.97;1.83;;;23.30;58.00;;;;;;5072514;28;20029;-82
2023/06/07 01:37:15;;;;;;;1.70;1.60;;;;;;;;;;5072380;28;20033;-82
2023/06/07 01:39:42;;;;;;;1.55;1.45;;;23.30;58.20;;;;;;5072518;28;20099;-82
2023/06/07 01:42:09;;;;;;;1.65;1.30;;;23.20;57.60;;;;;;5054467;28;20032;-82
2023/06/07 01:44:38;;;;;;;1.98;1.52;;;23.30;58.00;;;;;;5072381;28;20523;-82
2023/06/07 01:47:05;;;;;;;2.17;1.58;;;23.30;58.20;;;;;;5072449;28;20085;-82
2023/06/07 01:49:31;;;;;;;2.67;1.65;;;;;;;;;;5072358;28;20021;-82
2023/06/07 01:51:57;;;;;;;2.30;1.55;;;;;;;;;;5072299;28;20032;-83
2023/06/07 01:54:24;;;;;;;2.35;1.55;;;;;;;;;;5072276;28;20031;-83
2023/06/07 01:57:35;;;;;;;2.75;1.55;;;23.20;52.90;;;;;;5072102;28;20024;-83
2023/06/07 02:00:10;;;;;;;2.08;1.42;;;;;;;;;;5051770;28;20064;-82
2023/06/07 02:02:54;;;;;;;2.47;1.55;;;23.20;53.80;;;;;;5054092;28;20670;-83
2023/06/07 02:05:36;;;;;;;1.60;1.40;;;23.20;53.70;;;;;;5072287;28;20122;-83
2023/06/07 02:08:17;;;;;;;2.90;1.80;;;23.10;59.20;;;;;;5054170;28;20028;-83
2023/06/07 02:10:46;;;;;;;1.98;1.48;;;23.20;58.90;;;;;;5071899;28;20497;-83
2023/06/07 02:13:13;;;;;;;2.40;1.50;;;;;;;;;;5072398;28;20025;-83
2023/06/07 02:15:39;;;;;;;2.50;1.30;;;;;;;;;;5054305;28;20126;-83
2023/06/07 02:18:06;;;;;;;1.92;1.50;;;;;;;;;;5071744;28;20520;-83
2023/06/07 02:20:35;;;;;;;3.05;1.67;;;;;;;;;;5072112;28;20025;-83
2023/06/07 02:23:02;;;;;;;1.98;1.30;;;;;;;;;;5071734;28;20025;-83
2023/06/07 02:25:28;;;;;;;2.80;1.92;;;;;;;;;;5071823;28;20040;-83
2023/06/07 02:27:54;;;;;;;3.45;1.67;;;;;;;;;;5072010;28;20078;-83
2023/06/07 02:30:21;;;;;;;2.95;1.75;;;;;;;;;;5071703;28;20554;-83
2023/06/07 02:32:53;;;;;;;1.95;1.63;;;;;;;;;;5071999;28;20054;-82
2023/06/07 02:35:21;;;;;;;2.60;1.52;;;23.00;59.30;;;;;;5072081;28;20024;-84
2023/06/07 02:37:48;;;;;;;2.83;1.40;;;;;;;;;;5072035;28;20140;-84
2023/06/07 02:40:15;;;;;;;2.65;1.40;;;;;;;;;;5074204;28;20055;-83
2023/06/07 02:42:45;;;;;;;2.65;1.70;;;22.90;53.70;;;;;;5076019;28;20081;-83
2023/06/07 02:45:15;;;;;;;1.42;1.33;;;23.00;57.00;;;;;;5075984;28;20081;-82
2023/06/07 02:47:42;;;;;;;1.35;1.20;;;22.90;47.60;;;;;;5075916;28;20028;-83
2023/06/07 02:50:09;;;;;;;3.17;1.63;;;23.00;86.30;;;;;;5075875;28;20047;-83
2023/06/07 02:52:36;;;;;;;2.22;1.50;;;;;;;;;;5075648;28;20025;-83
2023/06/07 02:55:03;;;;;;;2.92;1.73;;;;;;;;;;5075731;28;20024;-83
2023/06/07 02:57:29;;;;;;;1.77;1.20;;;;;;;;;;5058020;28;20448;-83
2023/06/07 02:59:56;;;;;;;1.70;1.30;;;;;;;;;;5075247;28;20070;-83
2023/06/07 03:02:22;;;;;;;3.05;1.40;;;;;;;;;;5075107;28;20676;-83
2023/06/07 03:04:50;;;;;;;2.88;1.52;;;;;;;;;;5075147;28;20048;-82
2023/06/07 03:07:20;;;;;;;2.15;1.67;;;;;;;;;;5075078;28;20129;-82
2023/06/07 03:09:47;;;;;;;1.65;1.30;;;;;;;;;;5075347;28;20032;-82
2023/06/07 03:12:13;;;;;;;2.05;1.30;;;;;;;;;;5075515;28;20576;-83
2023/06/07 03:14:41;;;;;;;2.67;1.40;;;;;;;;;;5075427;28;20036;-83
2023/06/07 03:17:08;;;;;;;1.35;1.23;;;;;;;;;;5075335;28;20063;-82
2023/06/07 03:19:35;;;;;;;2.28;1.50;;;22.70;54.30;;;;;;5075051;28;20029;-82
2023/06/07 03:22:02;;;;;;;1.85;1.05;;;;;;;;;;5057000;28;20028;-82
2023/06/07 03:24:28;;;;;;;2.00;1.30;;;;;;;;;;5074967;28;20044;-83
2023/06/07 03:26:54;;;;;;;1.52;1.35;;;;;;;;;;5074973;28;20032;-83
2023/06/07 03:29:20;;;;;;;1.73;1.45;;;;;;;;;;5056820;28;20028;-82
2023/06/07 03:31:46;;;;;;;1.65;1.45;;;;;;;;;;5076796;28;20544;-82
2023/06/07 03:34:12;;;;;;;1.75;1.30;;;;;;;;;;5077334;28;20107;-83
2023/06/07 03:36:40;;;;;;;2.17;1.55;;;;;;;;;;5076834;28;20020;-82
2023/06/07 03:39:06;;;;;;;1.83;1.30;;;;;;;;;;5075179;28;20471;-82
2023/06/07 03:41:32;;;;;;;1.85;1.20;;;;;;;;;;5074662;28;20028;-83
2023/06/07 03:43:58;;;;;;;3.67;1.48;;;;;;;;;;5074608;28;20471;-83
2023/06/07 03:46:24;;;;;;;1.88;1.60;;;;;;;;;;5074610;28;20029;-83
2023/06/07 03:48:50;;;;;;;3.97;1.65;;;;;;;;;;5074686;28;20025;-83
2023/06/07 03:51:16;;;;;;;1.80;1.08;;;;;;;;;;5073858;28;20112;-83
2023/06/07 03:53:42;;;;;;;1.92;1.42;;;;;;;;;;5074553;28;20387;-78
2023/06/07 03:56:08;;;;;;;2.05;1.30;;;;;;;;;;5074433;28;20035;-77
2023/06/07 03:58:33;;;;;;;1.75;1.35;;;;;;;;;;5074360;28;20032;-77
2023/06/07 04:01:00;;;;;;;1.42;1.05;;;;;;;;;;5074297;28;20032;-77
2023/06/07 04:03:27;;;;;;;1.23;1.10;;;;;;;;;;5073906;28;20044;-78
2023/06/07 04:05:53;;;;;;;3.40;1.70;;;;;;;;;;5074224;28;20020;-77
2023/06/07 04:08:20;;;;;;;2.05;1.48;;;;;;;;;;5074326;28;20031;-78
2023/06/07 04:10:46;;;;;;;2.15;1.23;;;;;;;;;;5074633;28;20062;-77
2023/06/07 04:13:13;;;;;;;1.63;1.30;;;;;;;;;;5074202;28;20497;-78
2023/06/07 04:15:40;;;;;;;1.42;1.33;;;;;;;;;;5074415;28;20387;-78
2023/06/07 04:18:07;;;;;;;1.35;1.20;;;;;;;;;;5074263;28;20064;-77
2023/06/07 04:20:33;;;;;;;1.50;1.35;;;;;;;;;;5074028;28;20382;-78
2023/06/07 04:22:59;;;;;;;1.80;1.05;;;;;;;;;;5073907;28;20029;-78
2023/06/07 04:25:33;;;;;;;1.20;1.10;;;22.40;58.70;;;;;;5073830;28;20032;-78
2023/06/07 04:28:00;;;;;;;1.65;1.30;;;;;;;;;;5073886;28;20028;-77
2023/06/07 04:30:34;;;;;;;2.85;1.40;;;22.30;55.70;;;;;;5073687;28;20025;-77
2023/06/07 04:33:08;;;;;;;2.65;1.30;;;22.40;53.70;;;;;;5073761;28;20028;-77
2023/06/07 04:35:34;;;;;;;1.85;1.30;;;;;;;;;;5073742;28;20021;-78
2023/06/07 04:38:01;;;;;;;2.88;1.38;;;;;;;;;;5073551;28;20071;-78
2023/06/07 04:40:28;;;;;;;3.20;1.63;;;22.40;57.50;;;;;;5073613;28;20405;-78
2023/06/07 04:43:05;;;;;;;1.35;1.25;;;22.30;53.90;;;;;;5073487;28;20441;-78
2023/06/07 04:45:40;;;;;;;3.60;1.55;;;22.30;53.90;;;;;;5073514;28;20033;-78
2023/06/07 04:48:07;;;;;;;1.63;1.33;;;22.30;56.60;;;;;;5073703;28;20394;-78
2023/06/07 04:50:38;;;;;;;1.67;1.20;;;22.20;59.50;;;;;;5073239;28;20542;-78
2023/06/07 04:53:05;;;;;;;2.97;1.42;;;;;;;;;;5073522;28;20032;-77
2023/06/07 04:55:34;;;;;;;3.15;1.35;;;;;;;;;;5073599;28;20025;-78
2023/06/07 04:58:03;;;;;;;2.72;1.48;;;22.20;56.80;;;;;;5073596;28;20040;-78
2023/06/07 05:00:30;;;;;;;2.27;1.17;;;;;;;;;;5073625;28;20027;-78
2023/06/07 05:02:58;;;;;;;1.77;1.30;;;;;;;;;;5054542;28;20465;-77
2023/06/07 05:05:24;;;;;;;2.72;1.63;;;;;;;;;;5073373;28;20077;-77
2023/06/07 05:07:51;;;;;;;2.30;1.30;;;;;;;;;;5073423;28;20056;-77
2023/06/07 05:10:18;;;;;;;2.75;1.23;;;;;;;;;;5073192;28;20029;-77
2023/06/07 05:12:45;;;;;;;1.90;1.30;;;;;;;;;;5073219;28;20035;-77
2023/06/07 05:15:11;;;;;;;2.25;1.20;;;22.20;58.50;;;;;;5073246;28;20036;-80
2023/06/07 05:17:38;;;;;;;1.88;1.20;;;;;;;;;;5073266;28;20396;-78
2023/06/07 05:20:10;;;;;;;1.77;1.20;;;;;;;;;;5072728;28;20105;-78
2023/06/07 05:22:38;;;;;;;2.13;1.30;;;22.10;58.20;;;;;;5072907;28;20020;-78
2023/06/07 05:25:04;;;;;;;2.97;1.38;;;;;;;;;;5072724;28;20016;-77
2023/06/07 05:27:31;;;;;;;1.50;1.27;;;;;;;;;;5072927;28;20474;-78
2023/06/07 05:29:57;;;;;;;1.80;1.25;;;;;;;;;;5072674;28;20112;-78
2023/06/07 05:32:24;;;;;;;1.67;1.02;;;;;;;;;;5072834;28;20391;-78
2023/06/07 05:34:52;;;;;;;2.05;1.20;;;;;;;;;;5072479;28;20120;-78
2023/06/07 05:37:18;;;;;;;1.85;1.20;;;;;;;;;;5072667;28;20090;-78
2023/06/07 05:39:46;;;;;;;2.33;1.40;;;;;;;;;;5072671;28;20025;-78
2023/06/07 05:42:13;;;;;;;2.20;1.05;;;;;;;;;;5072801;28;20051;-78
2023/06/07 05:44:40;;;;;;;2.33;1.30;;;22.10;59.40;;;;;;5072346;28;20028;-78
2023/06/07 05:47:07;;;;;;;1.73;1.13;;;;;;;;;;5072397;28;20051;-78
2023/06/07 05:49:33;;;;;;;2.25;1.20;;;;;;;;;;5072545;28;20112;-78
2023/06/07 05:51:59;;;;;;;2.78;1.17;;;;;;;;;;5072134;28;20094;-78
2023/06/07 05:54:26;;;;;;;4.13;1.83;;;;;;;;;;5072209;28;20044;-77
2023/06/07 05:56:52;;;;;;;2.40;1.25;;;;;;;;;;5075559;28;20464;-77
2023/06/07 05:59:19;;;;;;;2.08;1.30;;;;;;;;;;5074558;28;20366;-77
2023/06/07 06:01:46;;;;;;;2.47;1.45;;;;;;;;;;5072104;28;20035;-78
2023/06/07 06:04:12;;;;;;;2.85;1.55;;;;;;;;;;5072398;28;20045;-79
2023/06/07 06:06:39;;;;;;;2.15;1.27;;;;;;;;;;5072436;28;20032;-77
2023/06/07 06:09:05;;;;;;;1.70;1.38;;;;;;;;;;5072460;28;20036;-77
2023/06/07 06:11:32;;;;;;;3.05;1.40;;;;;;;;;;5071921;28;20082;-77
2023/06/07 06:13:58;;;;;;;3.00;1.60;;;;;;;;;;5071926;28;20372;-81
2023/06/07 06:16:24;;;;;;;3.42;1.50;;;;;;;;;;5071751;28;20483;-76
2023/06/07 06:18:51;;;;;;;2.78;1.40;;;;;;;;;;5072295;28;20055;-81
2023/06/07 06:21:17;;;;;;;2.38;1.27;;;;;;;;;;5072176;28;20399;-80
2023/06/07 06:23:44;;;;;;;3.50;1.50;;;;;;;;;;5071734;28;20029;-82
2023/06/07 06:26:10;;;;;;;3.15;1.48;;;;;;;;;;5071887;28;20028;-81
2023/06/07 06:28:37;;;;;;;4.03;1.20;;;;;;;;;;5071963;28;20029;-81
2023/06/07 06:31:05;;;;;;;2.88;1.48;;;;;;;;;;5072034;28;20027;-81
2023/06/07 06:33:31;;;;;;;2.38;1.52;;;;;;;;;;5071582;28;20028;-80
2023/06/07 06:35:59;;;;;;;2.90;1.20;;;;;;;;;;5072146;28;20032;-85
2023/06/07 06:38:25;;;;;;;2.17;1.10;;;;;;;;;;5071681;28;20037;-82
2023/06/07 06:40:52;;;;;;;2.65;1.30;;;;;;;;;;5072132;28;20032;-78
2023/06/07 06:43:18;;;;;;;4.50;1.42;;;;;;;;;;5072013;28;20113;-82
2023/06/07 06:45:44;;;;;;;2.25;1.33;;;;;;;;;;5072121;28;20048;-80
2023/06/07 06:48:10;;;;;;;2.78;1.30;;;;;;;;;;5071736;28;20028;-79
2023/06/07 06:50:36;;;;;;;2.78;1.63;;;;;;;;;;5071979;28;20546;-80
2023/06/07 06:53:02;;;;;;;3.00;1.33;;;;;;;;;;5071967;28;20090;-82
2023/06/07 06:55:29;;;;;;;3.13;1.50;;;;;;;;;;5071774;28;20016;-86
2023/06/07 06:57:55;;;;;;;4.25;1.40;;;;;;;;;;5071217;28;20032;-80
2023/06/07 07:00:21;;;;;;;1.95;1.27;;;;;;;;;;5071482;28;20123;-79
2023/06/07 07:02:47;;;;;;;4.28;1.58;;;;;;;;;;5071145;28;20500;-80
2023/06/07 07:05:15;;;;;;;2.70;1.60;;;;;;;;;;5071230;28;20052;-82
2023/06/07 07:07:41;;;;;;;2.13;1.13;;;;;;;;;;5071508;28;20037;-78
2023/06/07 07:10:07;;;;;;;3.17;1.25;;;;;;;;;;5071385;28;20082;-78
2023/06/07 07:12:33;;;;;;;3.17;1.27;;;;;;;;;;5053345;28;20450;-78
2023/06/07 07:14:59;;;;;;;3.15;1.40;;;;;;;;;;5071386;28;20028;-80
2023/06/07 07:17:25;;;;;;;2.25;1.30;;;;;;;;;;5070996;28;20063;-81
2023/06/07 07:19:53;;;;;;;2.47;1.65;;;;;;;;;;5071139;28;20029;-77
2023/06/07 07:22:19;;;;;;;1.80;1.23;;;;;;;;;;5071388;28;20029;-77
2023/06/07 07:24:45;;;;;;;2.42;1.27;;;;;;;;;;5071365;28;20024;-77
2023/06/07 07:27:11;;;;;;;1.48;1.02;;;;;;;;;;5073616;28;20390;-77
2023/06/07 07:29:37;;;;;;;3.90;1.15;;;;;;;;;;5075155;28;20582;-79
2023/06/07 07:32:03;;;;;;;2.88;1.50;;;;;;;;;;5057296;28;20051;-81
2023/06/07 07:34:29;;;;;;;2.72;1.35;;;;;;;;;;5075395;28;20024;-82
2023/06/07 07:36:57;;;;;;;3.17;1.55;;;;;;;;;;5074979;28;20037;-79
2023/06/07 07:39:25;;;;;;;2.53;1.35;;;;;;;;;;5075172;28;20012;-78
2023/06/07 07:41:52;;;;;;;4.15;1.23;;;;;;;;;;5074774;28;20116;-84
2023/06/07 07:44:18;;;;;;;2.47;1.15;;;;;;;;;;5074720;28;20024;-79
2023/06/07 07:46:44;;;;;;;4.20;1.60;;;;;;;;;;5074872;28;20441;-81
2023/06/07 07:49:11;;;;;;;3.00;1.40;;;;;;;;;;5074531;28;20082;-79
2023/06/07 07:51:38;;;;;;;1.92;1.45;;;;;;;;;;5074859;28;20025;-81
2023/06/07 07:54:06;;;;;;;5.78;1.40;;;;;;;;;;5074352;28;20025;-80
2023/06/07 07:56:32;;;;;;;2.35;1.35;;;;;;;;;;5074840;28;20541;-81
2023/06/07 07:58:58;;;;;;;3.03;1.40;;;;;;;;;;5074685;28;20040;-81
2023/06/07 08:01:24;;;;;;;3.72;1.63;;;;;;;;;;5074560;28;20103;-81
2023/06/07 08:03:50;;;;;;;2.33;1.40;;;;;;;;;;5056472;28;20102;-79
2023/06/07 08:06:16;;;;;;;5.63;1.75;;;;;;;;;;5074582;28;20017;-79
2023/06/07 08:08:42;;;;;;;3.83;1.23;;;;;;;;;;5077570;28;20055;-78
2023/06/07 08:11:08;;;;;;;1.98;1.10;;;;;;;;;;5074531;28;20032;-83
2023/06/07 08:13:34;;;;;;;3.38;1.55;;;;;;;;;;5056214;28;20028;-81
2023/06/07 08:16:00;;;;;;;2.85;1.00;;;;;;;;;;5074199;28;20063;-81
2023/06/07 08:18:26;;;;;;;3.50;1.60;;;;;;;;;;5073975;28;20451;-81
2023/06/07 08:20:52;;;;;;;3.08;1.23;;;;;;;;;;5074126;28;20496;-81
2023/06/07 08:23:18;;;;;;;5.13;1.20;;;;;;;;;;5073832;28;20094;-82
2023/06/07 08:25:44;;;;;;;2.35;1.00;;;;;;;;;;5074137;28;20052;-80
2023/06/07 08:28:10;;;;;;;3.80;1.58;;;;;;;;;;5074656;28;20024;-92
2023/06/07 08:30:36;;;;;;;2.35;1.20;;;;;;;;;;5056560;28;20477;-83
2023/06/07 08:33:02;;;;;;;3.53;1.50;;;;;;;;;;5073985;28;20062;-80
2023/06/07 08:35:28;;;;;;;3.10;1.20;;;;;;;;;;5074202;28;20025;-80
2023/06/07 08:37:54;;;;;;;2.60;1.30;;;;;;;;;;5073915;28;20117;-80
2023/06/07 08:40:21;;;;;;;3.38;1.25;;;;;;;;;;5073904;28;20025;-80
2023/06/07 08:42:47;;;;;;;1.08;0.88;;;;;;;;;;5074009;28;20082;-80
2023/06/07 08:45:15;;;;;;;1.73;1.00;;;22.60;62.20;;;;;;5073850;28;20028;-79
2023/06/07 08:47:43;;;;;;;1.90;1.13;;;22.60;62.20;;;;;;5073684;28;20027;-80
2023/06/07 08:50:13;;;;;;;2.30;1.20;;;22.60;62.20;;;;;;5073761;28;20012;-80
2023/06/07 08:52:41;;;;;;;2.40;1.33;;;22.70;62.40;;;;;;5073936;28;20035;-78
2023/06/07 08:55:12;;;;;;;4.13;1.30;;;22.60;62.40;;;;;;5074159;28;20024;-81
2023/06/07 08:57:38;;;;;;;3.38;1.30;;;;;;;;;;5073554;28;20504;-80
2023/06/07 09:00:06;;;;;;;3.20;1.42;;;22.80;62.40;;;;;;5073225;28;20033;-80
2023/06/07 09:02:33;;;;;;;2.35;1.20;;;;;;;;;;5072958;28;20125;-80
2023/06/07 09:05:05;;;;;;;2.88;1.52;;;;;;;;;;5073646;28;20108;-80
2023/06/07 09:07:32;;;;;;;1.70;1.30;;;;;;;;;;5073490;28;20486;-80
2023/06/07 09:09:58;;;;;;;3.63;1.60;;;;;;;;;;5073217;28;20093;-80
2023/06/07 09:12:24;;;;;;;2.47;1.30;;;;;;;;;;5073465;28;20450;-80
2023/06/07 09:14:50;;;;;;;3.00;1.30;;;;;;;;;;5073271;28;20032;-80
2023/06/07 09:17:16;;;;;;;1.73;1.30;;;;;;;;;;5073035;28;20164;-80
2023/06/07 09:19:42;;;;;;;3.22;1.23;;;23.00;63.00;;;;;;5073160;28;20087;-80
2023/06/07 09:22:14;;;;;;;2.70;1.30;;;23.10;58.70;;;;;;5073249;28;20031;-80
2023/06/07 09:24:41;;;;;;;3.30;1.20;;;23.20;60.50;;;;;;5073236;28;20525;-78
2023/06/07 09:27:08;;;;;;;4.15;1.55;;;;;;;;;;5073322;28;20031;-77
2023/06/07 09:29:42;;;;;;;1.98;1.20;;;23.40;56.50;;;;;;5073047;28;20074;-78
2023/06/07 09:32:24;;;;;;;2.42;1.40;;;23.50;52.20;;;;;;5072847;28;20035;-77
2023/06/07 09:34:52;;;;;;;3.67;1.40;;;;;;;;;;5072785;28;20031;-78
2023/06/07 09:37:20;;;;;;;2.15;1.05;;;;;;;;;;5072689;28;20078;-78
2023/06/07 09:39:47;;;;;;;4.30;1.58;;;;;;;;;;5072522;28;20054;-78
2023/06/07 09:42:16;;;;;;;2.20;1.00;;;23.70;56.70;;;;;;5072635;28;20017;-79
2023/06/07 09:44:42;;;;;;;4.05;2.08;;;;;;;;;;5054703;28;20028;-79
2023/06/07 09:47:22;;;;;;;3.47;1.67;;;23.70;61.00;;;;;;5072494;28;20395;-78
2023/06/07 09:49:48;;;;;;;2.53;1.40;;;;;;;;;;5072003;28;20020;-78
2023/06/07 09:52:15;;;;;;;5.25;1.50;;;23.90;62.70;;;;;;5072259;28;20025;-79
2023/06/07 09:54:45;;;;;;;3.10;1.27;;;24.00;62.40;;;;;;5072820;28;20040;-79
2023/06/07 09:57:24;;;;;;;4.95;2.10;;;23.90;62.00;;;;;;5072703;28;20075;-79
2023/06/07 10:00:08;;;;;;;1.73;1.40;;;24.00;56.60;;;;;;5072793;28;20029;-80
2023/06/07 10:02:34;;;;;;;2.17;1.42;;;;;;;;;;5072459;28;20441;-87
2023/06/07 10:05:00;;;;;;;2.75;1.50;;;;;;;;;;5072495;28;20080;-79
2023/06/07 10:07:35;;;;;;;3.78;1.77;;;24.20;62.30;;;;;;5072486;28;20041;-81
2023/06/07 10:10:02;;;;;;;4.82;1.80;;;;;;;;;;5072644;28;20095;-81
2023/06/07 10:12:30;;;;;;;3.17;1.73;;;24.40;59.30;;;;;;5072890;28;20020;-79
2023/06/07 10:15:01;;;;;;;2.60;1.48;;;24.40;62.30;;;;;;5072564;28;20412;-81
2023/06/07 10:17:33;;;;;;;2.67;1.30;;;24.50;62.50;;;;;;5072720;28;20403;-80
2023/06/07 10:20:01;;;;;;;5.25;2.17;;;24.50;59.60;;;;;;5072337;28;20427;-83
2023/06/07 10:22:36;;;;;;;3.78;2.35;;;24.60;62.20;;;;;;5072449;28;20103;-78
2023/06/07 10:25:07;;;;;;;5.05;1.55;;;24.70;62.00;;;;;;5072240;28;20025;-80
2023/06/07 10:27:55;;;;;;;3.45;1.70;;;24.70;62.40;;;;;;5072407;28;20036;-79
2023/06/07 10:30:24;;;;;;;3.97;1.60;;;24.80;61.80;;;;;;5072262;28;20444;-78
2023/06/07 10:32:51;;;;;;;2.92;1.90;;;24.90;62.20;;;;;;5072378;28;20025;-77
2023/06/07 10:35:18;;;;;;;4.57;1.77;;;;;;;;;;5072463;28;20031;-78
2023/06/07 10:37:44;;;;;;;2.72;1.63;;;;;;;;;;5072275;28;20524;-80
2023/06/07 10:40:12;;;;;;;3.17;1.33;;;;;;;;;;5071883;28;20463;-82
2023/06/07 10:42:40;;;;;;;3.00;1.60;;;25.30;62.30;;;;;;5072282;28;20437;-81
2023/06/07 10:45:12;;;;;;;4.28;1.85;;;24.30;60.40;;;;;;5072146;28;20021;-80
2023/06/07 10:47:38;;;;;;;2.70;1.60;;;;;;;;;;5071924;28;20052;-79
2023/06/07 10:50:06;;;;;;;3.67;1.50;;;;;;;;;;5072113;28;20364;-78
2023/06/07 10:52:32;;;;;;;2.15;1.23;;;;;;;;;;5072040;28;20115;-80
2023/06/07 10:54:58;;;;;;;2.75;1.42;;;;;;;;;;5072017;28;20044;-82
2023/06/07 10:57:38;;;;;;;1.30;1.20;;;25.60;54.90;;;;;;5071670;28;20486;-78
2023/06/07 11:00:24;;;;;;;5.15;2.13;;;25.60;54.50;;;;;;5053790;28;20567;-77
2023/06/07 11:02:50;;;;;;;2.22;1.00;;;;;;;;;;5074733;28;20135;-79
2023/06/07 11:05:17;;;;;;;2.17;1.35;;;;;;;;;;5075657;28;20106;-78
2023/06/07 11:07:47;;;;;;;2.63;1.60;;;;;;;;;;5075862;28;20020;-77
2023/06/07 11:10:16;;;;;;;3.13;1.65;;;25.80;54.10;;;;;;5075569;28;20031;-80
2023/06/07 11:12:45;;;;;;;2.45;1.38;;;25.90;55.30;;;;;;5075369;28;20034;-79
2023/06/07 11:15:35;;;;;;;2.30;1.73;;;25.90;54.60;;;;;;5075473;28;20433;-79
2023/06/07 11:18:07;;;;;;;3.38;1.65;;;26.00;60.70;;;;;;5074980;28;20159;-77
2023/06/07 11:20:36;;;;;;;3.05;1.52;;;26.10;54.90;;;;;;5057133;28;20028;-82
2023/06/07 11:23:23;;;;;;;3.63;1.67;;;26.10;54.60;;;;;;5075061;28;20402;-79
2023/06/07 11:26:15;;;;;;;2.63;1.30;;;26.20;55.00;;;;;;5075495;28;20032;-82
2023/06/07 11:28:41;;;;;;;6.63;1.88;;;26.40;58.30;;;;;;5071665;28;20048;-80
2023/06/07 11:31:09;;;;;;;4.80;2.40;;;26.40;59.60;;;;;;5075273;28;20383;-83
2023/06/07 11:33:35;;;;;;;4.38;1.83;;;;;;;;;;5074801;28;20467;-84
2023/06/07 11:36:04;;;;;;;5.05;1.70;;;26.50;58.70;;;;;;5075158;28;20029;-87
2023/06/07 11:38:31;;;;;;;1.75;1.20;;;;;;;;;;5074975;28;20252;-86
2023/06/07 11:40:57;;;;;;;3.22;1.80;;;;;;;;;;5075188;28;20047;-90
2023/06/07 11:43:24;;;;;;;4.95;1.85;;;26.60;60.20;;;;;;5075252;28;20025;-84
2023/06/07 11:45:50;;;;;;;3.92;1.90;;;;;;;;;;5057084;28;20107;-86
2023/06/07 11:48:17;;;;;;;2.38;1.35;;;;;;;;;;5074932;28;20024;-84
2023/06/07 11:50:43;;;;;;;1.98;1.23;;;;;;;;;;5074867;28;20020;-84
2023/06/07 11:53:10;;;;;;;1.63;1.42;;;26.90;60.20;;;;;;5074834;28;20060;-82
2023/06/07 11:55:37;;;;;;;4.32;1.67;;;27.00;59.50;;;;;;5075195;28;20028;-84
2023/06/07 11:58:05;;;;;;;2.83;1.35;;;27.10;59.60;;;;;;5074998;28;20036;-83
2023/06/07 12:00:33;;;;;;;3.72;1.48;;;26.80;59.50;;;;;;5075086;28;20360;-83
2023/06/07 12:03:00;;;;;;;3.90;1.67;;;27.20;58.90;;;;;;5074149;28;20082;-82
2023/06/07 12:05:30;;;;;;;2.00;1.45;;;27.30;59.60;;;;;;5074384;28;20029;-83
2023/06/07 12:08:04;;;;;;;5.05;1.77;;;27.30;54.50;;;;;;5074315;28;20612;-83
2023/06/07 12:10:36;;;;;;;1.85;1.35;;;27.40;56.90;;;;;;5074785;28;20024;-82
2023/06/07 12:13:12;;;;;;;3.70;2.10;;;27.40;53.80;;;;;;5074142;28;20028;-82
2023/06/07 12:15:57;;;;;;;2.80;1.35;;;27.50;54.30;;;;;;5074729;28;20017;-82
2023/06/07 12:18:26;;;;;;;2.47;1.65;;;27.50;60.00;;;;;;5076963;28;20439;-82
2023/06/07 12:21:02;;;;;;;6.35;1.65;;;;;;;;;;5076287;28;20036;-83
2023/06/07 12:23:28;;;;;;;2.15;1.33;;;;;;;;;;5076480;28;20111;-83
2023/06/07 12:26:15;;;;;;;3.42;1.40;;;27.50;57.70;;;;;;5076033;28;20031;-83
2023/06/07 12:28:43;;;;;;;3.50;1.65;;;27.20;58.70;;;;;;5074575;28;20040;-82
2023/06/07 12:31:16;;;;;;;2.33;1.33;;;27.20;54.70;;;;;;5073972;28;20032;-82
2023/06/07 12:33:59;;;;;;;3.22;1.30;;;27.20;61.00;;;;;;5074108;28;20108;-82
2023/06/07 12:36:33;;;;;;;3.33;1.98;;;27.50;86.40;;;;;;5074344;28;20052;-82
2023/06/07 12:39:02;;;;;;;2.35;1.58;;;27.00;57.60;;;;;;5074284;28;20033;-83
2023/06/07 12:41:28;;;;;;;3.85;1.75;;;;;;;;;;5074192;28;20024;-83
2023/06/07 12:43:54;;;;;;;3.00;1.30;;;;;;;;;;5073899;28;20021;-85
2023/06/07 12:46:20;;;;;;;2.92;1.67;;;;;;;;;;5074203;28;20051;-84
2023/06/07 12:48:47;;;;;;;3.97;1.67;;;;;;;;;;5074350;28;20025;-87
2023/06/07 12:51:13;;;;;;;3.47;1.40;;;26.60;58.80;;;;;;5073775;28;20317;-84
2023/06/07 12:53:39;;;;;;;3.08;1.70;;;;;;;;;;5073638;28;20498;-80
2023/06/07 12:56:06;;;;;;;2.58;1.55;;;26.90;61.60;;;;;;5073767;28;20040;-84
2023/06/07 12:58:32;;;;;;;2.88;1.60;;;;;;;;;;5073653;28;20123;-82
2023/06/07 13:00:58;;;;;;;4.63;1.60;;;;;;;;;;5073875;28;20024;-83
2023/06/07 13:03:26;;;;;;;5.45;2.00;;;;;;;;;;5073315;28;20102;-80
2023/06/07 13:05:52;;;;;;;3.80;1.52;;;;;;;;;;5073351;28;20044;-79
2023/06/07 13:08:18;;;;;;;2.92;1.60;;;;;;;;;;5073190;28;20475;-78
2023/06/07 13:10:44;;;;;;;5.63;1.90;;;;;;;;;;5073286;28;20059;-80
2023/06/07 13:13:10;;;;;;;5.07;1.77;;;;;;;;;;5073118;28;20033;-81
2023/06/07 13:15:36;;;;;;;5.68;2.45;;;;;;;;;;5073080;28;20025;-80
2023/06/07 13:18:03;;;;;;;3.50;1.67;;;;;;;;;;5072651;28;20372;-80
2023/06/07 13:20:29;;;;;;;3.03;1.80;;;;;;;;;;5072900;28;20036;-81
2023/06/07 13:22:56;;;;;;;1.55;1.27;;;;;;;;;;5073111;28;20483;-81
2023/06/07 13:25:22;;;;;;;3.67;1.92;;;;;;;;;;5071870;28;20060;-81
2023/06/07 13:27:48;;;;;;;3.72;1.70;;;;;;;;;;5072669;28;20020;-81
2023/06/07 13:30:14;;;;;;;3.78;1.90;;;;;;;;;;5054726;28;20024;-81
2023/06/07 13:32:41;;;;;;;3.75;1.50;;;;;;;;;;5054747;28;20021;-81
2023/06/07 13:35:07;;;;;;;1.17;1.15;;;;;;;;;;5054540;28;20386;-80
2023/06/07 13:37:33;;;;;;;3.70;1.83;;;;;;;;;;5072407;28;20123;-80
2023/06/07 13:39:59;;;;;;;4.65;1.60;;;;;;;;;;5072736;28;20070;-81
2023/06/07 13:42:26;;;;;;;4.22;1.88;;;;;;;;;;5072723;28;20131;-80
2023/06/07 13:44:52;;;;;;;4.57;1.98;;;;;;;;;;5072767;28;20347;-80
2023/06/07 13:47:20;;;;;;;3.90;1.55;;;;;;;;;;5072537;28;20032;-81
2023/06/07 13:49:46;;;;;;;2.42;1.75;;;;;;;;;;5072590;28;20029;-80
2023/06/07 13:52:13;;;;;;;4.45;1.90;;;;;;;;;;5072363;28;20445;-81
2023/06/07 13:54:40;;;;;;;3.35;1.67;;;28.10;57.70;;;;;;5072636;28;20024;-81
2023/06/07 13:57:07;;;;;;;4.90;2.35;;;;;;;;;;5072584;28;20036;-80
2023/06/07 13:59:33;;;;;;;3.22;1.83;;;;;;;;;;5072626;28;20029;-80
2023/06/07 14:02:00;;;;;;;4.28;1.90;;;;;;;;;;5072041;28;20076;-80
2023/06/07 14:04:26;;;;;;;2.58;1.60;;;;;;;;;;5072052;28;20024;-80
2023/06/07 14:06:53;;;;;;;3.95;1.90;;;;;;;;;;5072084;28;20505;-80
2023/06/07 14:09:19;;;;;;;4.82;2.17;;;28.40;53.80;;;;;;5072027;28;20078;-79